Aviation Digital Data Service (ADDS)

Output produced by METARs form (0137 UTC 16 January 2019)
found at http://www.aviationweather.gov/metar/data/
 
TAF MKJP 152315Z 1600/1624 34004KT 9999 FEW022 
     BECMG 1614/1616 17010KT 
     PROB30 
     TEMPO 1618/1624 SHRA BKN020
       
TAF MKJS 152315Z 1600/1624 14005KT 9999 FEW022 
     BECMG 1613/1615 06012KT